createdAt,value
2022-10-02T00:02:03.856Z,2.70
2022-10-02T00:04:38.238Z,2.95
2022-10-02T00:07:07.326Z,2.90
2022-10-02T00:09:45.519Z,4.40
2022-10-02T00:12:17.063Z,3.10
2022-10-02T00:14:46.651Z,2.75
2022-10-02T00:17:28.165Z,2.58
2022-10-02T00:19:56.203Z,2.72
2022-10-02T00:22:47.659Z,2.70
2022-10-02T00:25:44.878Z,3.85
2022-10-02T00:28:30.988Z,2.85
2022-10-02T00:31:27.828Z,4.03
2022-10-02T00:34:15.161Z,3.15
2022-10-02T00:37:01.417Z,3.08
2022-10-02T00:39:43.906Z,2.10
2022-10-02T00:42:38.721Z,3.65
2022-10-02T00:45:20.766Z,4.03
2022-10-02T00:48:18.232Z,4.40
2022-10-02T00:51:22.989Z,3.90
2022-10-02T00:56:38.672Z,3.28
2022-10-02T00:59:14.900Z,3.50
2022-10-02T01:02:01.672Z,3.75
2022-10-02T01:04:32.670Z,3.40
2022-10-02T01:07:00.604Z,3.38
2022-10-02T01:09:27.913Z,2.35
2022-10-02T01:11:55.526Z,3.33
2022-10-02T01:14:32.737Z,3.28
2022-10-02T01:17:00.505Z,2.95
2022-10-02T01:19:42.275Z,2.72
2022-10-02T01:22:21.390Z,4.07
2022-10-02T01:24:59.557Z,2.97
2022-10-02T01:27:27.021Z,2.70
2022-10-02T01:30:06.190Z,2.42
2022-10-02T01:32:35.364Z,2.95
2022-10-02T01:35:03.143Z,3.83
2022-10-02T01:37:32.814Z,2.92
2022-10-02T01:40:07.235Z,3.85
2022-10-02T01:42:34.867Z,2.75
2022-10-02T01:45:04.547Z,3.65
2022-10-02T01:47:41.767Z,3.25
2022-10-02T01:50:14.627Z,3.70
2022-10-02T01:53:06.506Z,4.30
2022-10-02T01:56:03.519Z,3.60
2022-10-02T01:58:52.509Z,4.15
2022-10-02T02:01:25.473Z,3.33
2022-10-02T02:03:55.446Z,4.50
2022-10-02T02:06:32.473Z,4.60
2022-10-02T02:09:28.145Z,3.75
2022-10-02T02:12:03.480Z,4.70
2022-10-02T02:14:35.431Z,4.82
2022-10-02T02:17:14.780Z,4.53
2022-10-02T02:20:01.405Z,4.43
2022-10-02T02:22:31.531Z,3.90
2022-10-02T02:25:10.270Z,5.03
2022-10-02T02:27:41.502Z,4.53
2022-10-02T02:30:14.510Z,5.28
2022-10-02T02:32:50.214Z,5.63
2022-10-02T02:35:20.212Z,5.20
2022-10-02T02:37:51.595Z,5.30
2022-10-02T02:40:24.501Z,5.25
2022-10-02T02:42:59.848Z,5.93
2022-10-02T02:45:39.551Z,5.75
2022-10-02T02:48:12.333Z,5.70
2022-10-02T02:50:44.389Z,4.95
2022-10-02T02:53:17.727Z,5.43
2022-10-02T02:55:53.373Z,6.47
2022-10-02T02:58:29.287Z,6.07
2022-10-02T03:00:56.484Z,5.22
2022-10-02T03:03:23.878Z,5.15
2022-10-02T03:05:57.322Z,5.93
2022-10-02T03:08:28.299Z,5.80
2022-10-02T03:11:05.872Z,4.90
2022-10-02T03:13:50.811Z,5.20
2022-10-02T03:16:17.917Z,5.40
2022-10-02T03:19:05.495Z,4.63
2022-10-02T03:21:39.477Z,5.50
2022-10-02T03:24:19.010Z,5.45
2022-10-02T03:26:54.119Z,5.63
2022-10-02T03:29:29.435Z,5.18
2022-10-02T03:31:57.009Z,6.03
2022-10-02T03:34:24.516Z,4.85
2022-10-02T03:36:52.041Z,4.07
2022-10-02T03:39:26.439Z,4.63
2022-10-02T03:41:54.390Z,3.83
2022-10-02T03:44:25.466Z,5.10
2022-10-02T03:46:52.608Z,4.75
2022-10-02T03:49:19.684Z,5.40
2022-10-02T03:51:46.833Z,4.15
2022-10-02T03:54:19.755Z,4.97
2022-10-02T03:56:56.745Z,4.07
2022-10-02T03:59:48.021Z,4.55
2022-10-02T04:02:44.840Z,4.80
2022-10-02T04:05:30.559Z,3.55
2022-10-02T04:08:11.323Z,5.68
2022-10-02T04:11:03.168Z,4.15
2022-10-02T04:13:39.911Z,4.28
2022-10-02T04:16:29.422Z,3.90
2022-10-02T04:19:22.494Z,4.00
2022-10-02T04:22:10.140Z,4.18
2022-10-02T04:24:44.574Z,4.28
2022-10-02T04:27:18.926Z,4.22
2022-10-02T04:29:58.078Z,3.45
2022-10-02T04:32:31.264Z,4.63
2022-10-02T04:34:59.057Z,4.80
2022-10-02T04:37:34.852Z,3.42
2022-10-02T04:40:20.965Z,3.88
2022-10-02T04:43:04.415Z,3.08
2022-10-02T04:46:02.332Z,3.97
2022-10-02T04:48:47.667Z,4.30
2022-10-02T04:51:33.183Z,4.03
2022-10-02T04:54:37.172Z,4.18
2022-10-02T04:57:25.715Z,3.33
2022-10-02T05:00:01.460Z,3.45
2022-10-02T05:02:49.431Z,3.75
2022-10-02T05:05:25.432Z,4.30
2022-10-02T05:08:16.554Z,4.60
2022-10-02T05:11:05.126Z,4.78
2022-10-02T05:13:32.560Z,5.05
2022-10-02T05:16:38.647Z,4.40
2022-10-02T05:19:28.724Z,4.75
2022-10-02T05:22:14.914Z,4.43
2022-10-02T05:24:59.977Z,4.65
2022-10-02T05:27:37.230Z,4.65
2022-10-02T05:30:13.414Z,4.70
2022-10-02T05:32:46.629Z,4.13
2022-10-02T05:35:16.669Z,4.45
2022-10-02T05:37:58.751Z,3.17
2022-10-02T05:40:55.839Z,4.40
2022-10-02T05:43:33.336Z,4.35
2022-10-02T05:46:08.416Z,4.32
2022-10-02T05:48:46.663Z,3.50
2022-10-02T05:51:23.092Z,3.65
2022-10-02T05:53:57.988Z,3.65
2022-10-02T05:56:35.643Z,4.13
2022-10-02T05:59:09.542Z,4.68
2022-10-02T06:01:42.006Z,3.67
2022-10-02T06:04:37.306Z,3.53
2022-10-02T06:07:08.783Z,3.22
2022-10-02T06:09:47.723Z,3.17
2022-10-02T06:12:26.466Z,2.90
2022-10-02T06:15:08.302Z,3.75
2022-10-02T06:17:45.533Z,4.18
2022-10-02T06:20:32.547Z,4.13
2022-10-02T06:23:14.348Z,3.20
2022-10-02T06:25:49.653Z,2.97
2022-10-02T06:28:43.949Z,3.92
2022-10-02T06:31:22.253Z,3.17
2022-10-02T06:33:53.219Z,2.90
2022-10-02T06:36:42.470Z,4.45
2022-10-02T06:39:27.577Z,3.70
2022-10-02T06:42:08.505Z,3.30
2022-10-02T06:44:49.528Z,3.67
2022-10-02T06:47:39.051Z,3.28
2022-10-02T06:50:19.298Z,3.83
2022-10-02T06:52:55.363Z,3.97
2022-10-02T06:55:48.760Z,3.85
2022-10-02T06:58:30.943Z,4.20
2022-10-02T07:01:07.284Z,4.32
2022-10-02T07:03:58.783Z,3.42
2022-10-02T07:06:40.197Z,4.90
2022-10-02T07:09:38.446Z,4.13
2022-10-02T07:12:20.540Z,4.03
2022-10-02T07:15:10.036Z,3.63
2022-10-02T07:18:25.245Z,3.80
2022-10-02T07:21:27.140Z,4.65
2022-10-02T07:24:12.428Z,3.90
2022-10-02T07:27:02.921Z,4.45
2022-10-02T07:29:41.843Z,4.55
2022-10-02T07:32:10.892Z,4.03
2022-10-02T07:35:22.663Z,4.18
2022-10-02T07:38:08.300Z,4.45
2022-10-02T07:41:00.212Z,4.85
2022-10-02T07:43:36.018Z,4.45
2022-10-02T07:46:26.979Z,4.47
2022-10-02T07:48:59.416Z,4.68
2022-10-02T07:52:04.306Z,5.10
2022-10-02T07:54:47.813Z,4.63
2022-10-02T07:57:38.516Z,4.65
2022-10-02T08:00:17.265Z,4.07
2022-10-02T08:03:02.667Z,4.90
2022-10-02T08:05:34.758Z,4.78
2022-10-02T08:08:35.326Z,4.15
2022-10-02T08:11:39.407Z,4.60
2022-10-02T08:14:22.928Z,3.78
2022-10-02T08:16:53.458Z,4.25
2022-10-02T08:19:29.964Z,3.75
2022-10-02T08:22:11.421Z,3.63
2022-10-02T08:24:45.677Z,3.00
2022-10-02T08:27:24.918Z,4.18
2022-10-02T08:30:03.943Z,3.35
2022-10-02T08:32:34.905Z,2.63
2022-10-02T08:35:12.010Z,3.58
2022-10-02T08:37:59.872Z,3.85
2022-10-02T08:40:39.617Z,3.42
2022-10-02T08:43:25.056Z,3.25
2022-10-02T08:46:19.796Z,3.33
2022-10-02T08:49:21.951Z,3.90
2022-10-02T08:52:25.835Z,3.05
2022-10-02T08:55:23.502Z,3.30
2022-10-02T08:58:38.826Z,2.85
2022-10-02T09:01:21.117Z,3.03
2022-10-02T09:04:23.827Z,2.42
2022-10-02T09:07:12.181Z,2.70
2022-10-02T09:10:01.484Z,2.42
2022-10-02T09:13:12.486Z,3.13
2022-10-02T09:15:47.607Z,3.30
2022-10-02T09:18:25.216Z,3.63
2022-10-02T09:21:11.729Z,3.25
2022-10-02T09:24:17.475Z,2.67
2022-10-02T09:26:53.814Z,2.83
2022-10-02T09:29:42.510Z,3.00
2022-10-02T09:32:12.187Z,3.17
2022-10-02T09:34:52.533Z,2.55
2022-10-02T09:37:35.225Z,2.75
2022-10-02T09:40:40.769Z,3.60
2022-10-02T09:43:34.879Z,2.42
2022-10-02T09:46:22.073Z,3.13
2022-10-02T09:49:32.421Z,2.50
2022-10-02T09:52:02.442Z,2.65
2022-10-02T09:55:01.265Z,3.22
2022-10-02T09:57:47.631Z,2.53
2022-10-02T10:01:05.774Z,2.88
2022-10-02T10:04:12.658Z,2.75
2022-10-02T10:06:54.360Z,2.78
2022-10-02T10:10:00.294Z,2.65
2022-10-02T10:12:48.140Z,2.30
2022-10-02T10:15:33.786Z,2.10
2022-10-02T10:18:12.643Z,2.30
2022-10-02T10:21:14.518Z,2.78
2022-10-02T10:24:09.330Z,2.28
2022-10-02T10:26:59.554Z,2.40
2022-10-02T10:29:38.887Z,2.88
2022-10-02T10:32:38.769Z,2.03
2022-10-02T10:35:33.405Z,2.50
2022-10-02T10:38:28.124Z,2.33
2022-10-02T10:41:16.137Z,2.25
2022-10-02T10:44:22.086Z,1.98
2022-10-02T10:47:08.410Z,2.08
2022-10-02T10:49:43.971Z,1.63
2022-10-02T10:52:41.771Z,1.83
2022-10-02T10:55:32.521Z,2.58
2022-10-02T10:58:21.141Z,1.98
2022-10-02T11:01:04.049Z,2.03
2022-10-02T11:04:03.218Z,1.75
2022-10-02T11:06:57.316Z,3.20
2022-10-02T11:09:32.435Z,2.80
2022-10-02T11:12:26.798Z,2.00
2022-10-02T11:18:15.110Z,2.05
2022-10-02T11:21:10.519Z,2.33
2022-10-02T11:24:02.224Z,3.10
2022-10-02T11:27:06.345Z,2.75
2022-10-02T11:29:57.024Z,2.38
2022-10-02T11:32:29.679Z,2.65
2022-10-02T11:35:19.535Z,2.83
2022-10-02T11:38:06.563Z,2.10
2022-10-02T11:40:44.904Z,2.53
2022-10-02T11:43:25.663Z,2.47
2022-10-02T11:46:25.545Z,2.33
2022-10-02T11:49:26.394Z,2.40
2022-10-02T11:52:05.849Z,1.85
2022-10-02T11:54:48.495Z,2.20
2022-10-02T11:57:45.731Z,2.75
2022-10-02T12:00:55.541Z,2.50
2022-10-02T12:03:48.624Z,1.75
2022-10-02T12:06:44.388Z,2.20
2022-10-02T12:09:29.928Z,2.35
2022-10-02T12:12:17.012Z,2.30
2022-10-02T12:15:25.525Z,2.40
2022-10-02T12:18:05.993Z,2.60
2022-10-02T12:21:13.117Z,2.63
2022-10-02T12:24:26.597Z,1.95
2022-10-02T12:27:38.247Z,2.30
2022-10-02T12:30:12.195Z,1.98
2022-10-02T12:33:08.146Z,2.05
2022-10-02T12:35:40.011Z,2.60
2022-10-02T12:38:21.667Z,2.22
2022-10-02T12:41:03.431Z,2.45
2022-10-02T12:43:59.440Z,1.83
2022-10-02T12:46:47.678Z,2.10
2022-10-02T12:49:52.376Z,2.47
2022-10-02T12:55:04.857Z,2.65
2022-10-02T12:57:53.397Z,2.60
2022-10-02T13:00:30.911Z,2.33
2022-10-02T13:03:05.548Z,2.08
2022-10-02T13:05:47.706Z,2.63
2022-10-02T13:08:18.214Z,1.75
2022-10-02T13:11:21.119Z,2.55
2022-10-02T13:14:17.960Z,2.20
2022-10-02T13:16:45.030Z,1.88
2022-10-02T13:19:39.865Z,2.10
2022-10-02T13:22:46.976Z,2.53
2022-10-02T13:25:39.623Z,2.08
2022-10-02T13:28:38.671Z,1.77
2022-10-02T13:31:22.362Z,2.08
2022-10-02T13:34:13.984Z,2.28
2022-10-02T13:37:10.107Z,2.17
2022-10-02T13:39:42.716Z,2.25
2022-10-02T13:42:38.209Z,2.13
2022-10-02T13:45:23.491Z,2.30
2022-10-02T13:50:22.480Z,1.80
2022-10-02T13:53:07.414Z,2.17
2022-10-02T13:55:44.484Z,2.05
2022-10-02T13:58:36.311Z,2.47
2022-10-02T14:01:25.160Z,2.17
2022-10-02T14:03:55.121Z,1.60
2022-10-02T14:06:31.999Z,1.75
2022-10-02T14:09:16.857Z,2.05
2022-10-02T14:11:56.327Z,1.92
2022-10-02T14:14:36.351Z,1.70
2022-10-02T14:17:14.047Z,2.22
2022-10-02T14:19:51.584Z,1.80
2022-10-02T14:22:43.826Z,2.20
2022-10-02T14:25:46.688Z,2.22
2022-10-02T14:28:19.759Z,2.15
2022-10-02T14:31:15.560Z,2.53
2022-10-02T14:34:33.262Z,1.92
2022-10-02T14:37:18.589Z,2.03
2022-10-02T14:39:45.671Z,1.85
2022-10-02T14:42:15.307Z,1.80
2022-10-02T14:45:21.661Z,2.83
2022-10-02T14:48:13.352Z,1.88
2022-10-02T14:51:03.909Z,2.13
2022-10-02T14:53:59.073Z,2.33
2022-10-02T14:56:59.692Z,2.67
2022-10-02T15:00:02.101Z,2.67
2022-10-02T15:02:50.620Z,2.20
2022-10-02T15:05:45.175Z,2.03
2022-10-02T15:08:16.665Z,2.70
2022-10-02T15:10:45.966Z,1.95
2022-10-02T15:13:34.751Z,1.90
2022-10-02T15:16:44.863Z,2.28
2022-10-02T15:19:20.558Z,2.05
2022-10-02T15:22:14.663Z,1.58
2022-10-02T15:24:56.512Z,1.90
2022-10-02T15:27:29.300Z,2.65
2022-10-02T15:30:17.734Z,2.58
2022-10-02T15:32:51.222Z,2.60
2022-10-02T15:35:39.078Z,2.17
2022-10-02T15:38:11.837Z,2.10
2022-10-02T15:40:47.087Z,2.05
2022-10-02T15:43:16.892Z,2.72
2022-10-02T15:45:57.468Z,1.70
2022-10-02T15:48:36.643Z,2.05
2022-10-02T15:51:29.665Z,2.53
2022-10-02T15:54:15.752Z,2.45
2022-10-02T15:56:54.680Z,2.17
2022-10-02T15:59:59.533Z,2.35
2022-10-02T16:02:35.555Z,1.92
2022-10-02T16:05:15.189Z,2.30
2022-10-02T16:08:16.227Z,3.45
2022-10-02T16:11:05.956Z,2.13
2022-10-02T16:13:59.241Z,2.00
2022-10-02T16:16:41.767Z,2.53
2022-10-02T16:19:37.371Z,2.53
2022-10-02T16:22:29.899Z,2.55
2022-10-02T16:25:27.742Z,3.03
2022-10-02T16:28:20.604Z,2.03
2022-10-02T16:30:50.599Z,2.72
2022-10-02T16:33:25.851Z,2.55
2022-10-02T16:36:08.253Z,2.00
2022-10-02T16:39:14.521Z,2.78
2022-10-02T16:41:54.132Z,3.00
2022-10-02T16:44:50.060Z,2.95
2022-10-02T16:47:36.175Z,1.88
2022-10-02T16:50:15.274Z,2.15
2022-10-02T16:53:20.966Z,1.92
2022-10-02T16:55:58.547Z,2.28
2022-10-02T16:58:32.999Z,2.13
2022-10-02T17:01:13.835Z,2.40
2022-10-02T17:03:45.184Z,2.40
2022-10-02T17:06:28.756Z,2.40
2022-10-02T17:09:18.897Z,1.92
2022-10-02T17:12:12.989Z,1.73
2022-10-02T17:14:55.540Z,2.95
2022-10-02T17:17:59.514Z,2.35
2022-10-02T17:20:32.077Z,2.58
2022-10-02T17:23:28.189Z,2.53
2022-10-02T17:26:35.822Z,2.30
2022-10-02T17:29:27.752Z,3.20
2022-10-02T17:31:57.588Z,3.25
2022-10-02T17:34:49.062Z,2.72
2022-10-02T17:37:16.037Z,3.50
2022-10-02T17:39:52.282Z,3.42
2022-10-02T17:42:56.966Z,2.22
2022-10-02T17:48:21.331Z,3.45
2022-10-02T17:51:51.168Z,2.92
2022-10-02T17:54:36.885Z,2.70
2022-10-02T17:57:36.305Z,2.47
2022-10-02T18:00:22.340Z,2.45
2022-10-02T18:03:09.964Z,2.55
2022-10-02T18:05:43.628Z,2.35
2022-10-02T18:08:30.709Z,3.88
2022-10-02T18:11:21.420Z,3.25
2022-10-02T18:13:59.611Z,3.28
2022-10-02T18:16:50.693Z,3.20
2022-10-02T18:19:30.124Z,3.67
2022-10-02T18:22:19.153Z,3.10
2022-10-02T18:25:12.282Z,3.83
2022-10-02T18:28:10.457Z,2.72
2022-10-02T18:30:59.288Z,2.60
2022-10-02T18:33:38.404Z,2.72
2022-10-02T18:36:18.199Z,3.10
2022-10-02T18:38:52.516Z,2.70
2022-10-02T18:41:41.151Z,2.60
2022-10-02T18:44:34.237Z,2.88
2022-10-02T18:47:07.174Z,3.90
2022-10-02T18:49:49.087Z,4.80
2022-10-02T18:52:45.559Z,4.72
2022-10-02T18:55:40.201Z,3.47
2022-10-02T18:58:22.633Z,4.13
2022-10-02T19:01:13.783Z,3.33
2022-10-02T19:03:55.819Z,3.60
2022-10-02T19:06:34.810Z,3.65
2022-10-02T19:09:08.022Z,2.40
2022-10-02T19:11:56.828Z,3.50
2022-10-02T19:14:36.889Z,3.25
2022-10-02T19:17:09.686Z,3.70
2022-10-02T19:19:36.988Z,3.67
2022-10-02T19:22:25.825Z,4.07
2022-10-02T19:24:58.928Z,5.35
2022-10-02T19:27:32.395Z,4.82
2022-10-02T19:30:26.230Z,5.40
2022-10-02T19:33:01.527Z,4.05
2022-10-02T19:35:47.140Z,3.10
2022-10-02T19:38:14.147Z,6.40
2022-10-02T19:40:41.673Z,7.95
2022-10-02T19:43:28.258Z,6.32
2022-10-02T19:45:58.500Z,5.32
2022-10-02T19:48:28.176Z,4.72
2022-10-02T19:51:08.004Z,4.10
2022-10-02T19:53:41.483Z,4.90
2022-10-02T19:56:14.859Z,5.30
2022-10-02T19:58:50.522Z,4.53
2022-10-02T20:01:24.230Z,3.72
2022-10-02T20:03:59.782Z,4.43
2022-10-02T20:06:32.602Z,4.22
2022-10-02T20:09:07.341Z,3.55
2022-10-02T20:11:41.729Z,5.57
2022-10-02T20:14:19.503Z,4.53
2022-10-02T20:17:05.423Z,5.65
2022-10-02T20:19:36.869Z,5.68
2022-10-02T20:22:16.510Z,6.20
2022-10-02T20:24:56.390Z,5.95
2022-10-02T20:27:38.005Z,6.40
2022-10-02T20:30:15.322Z,7.82
2022-10-02T20:32:58.198Z,8.50
2022-10-02T20:35:34.830Z,7.03
2022-10-02T20:38:10.824Z,7.22
2022-10-02T20:40:48.275Z,7.72
2022-10-02T20:43:25.582Z,7.03
2022-10-02T20:46:22.565Z,6.82
2022-10-02T20:49:08.432Z,6.80
2022-10-02T20:52:10.090Z,7.07
2022-10-02T20:54:42.932Z,7.82
2022-10-02T20:57:56.468Z,7.82
2022-10-02T21:00:25.023Z,6.80
2022-10-02T21:03:13.447Z,7.50
2022-10-02T21:06:35.735Z,7.90
2022-10-02T21:09:28.174Z,8.57
2022-10-02T21:12:25.762Z,8.90
2022-10-02T21:15:14.201Z,13.05
2022-10-02T21:18:04.668Z,28.35
2022-10-02T21:20:55.447Z,27.92
2022-10-02T21:23:51.346Z,18.23
2022-10-02T21:26:43.919Z,10.85
2022-10-02T21:29:24.095Z,14.50
2022-10-02T21:32:04.472Z,12.60
2022-10-02T21:34:54.183Z,12.18
2022-10-02T21:37:35.497Z,13.40
2022-10-02T21:40:17.834Z,11.82
2022-10-02T21:43:05.080Z,9.57
2022-10-02T21:46:05.638Z,10.15
2022-10-02T21:48:39.237Z,9.52
2022-10-02T21:51:34.083Z,7.35
2022-10-02T21:54:12.939Z,7.47
2022-10-02T21:57:04.662Z,9.20
2022-10-02T22:00:11.018Z,7.85
2022-10-02T22:02:59.102Z,6.60
2022-10-02T22:06:05.301Z,5.55
2022-10-02T22:08:50.598Z,5.00
2022-10-02T22:11:24.000Z,4.22
2022-10-02T22:13:58.553Z,4.38
2022-10-02T22:16:47.679Z,4.03
2022-10-02T22:19:34.646Z,4.10
2022-10-02T22:22:27.887Z,4.18
2022-10-02T22:25:25.956Z,5.10
2022-10-02T22:28:32.529Z,3.70
2022-10-02T22:31:08.682Z,3.13
2022-10-02T22:33:54.966Z,3.70
2022-10-02T22:36:51.485Z,3.78
2022-10-02T22:39:24.395Z,3.50
2022-10-02T22:42:04.975Z,4.00
2022-10-02T22:44:52.842Z,4.30
2022-10-02T22:47:37.852Z,3.83
2022-10-02T22:50:20.308Z,3.35
2022-10-02T22:52:58.560Z,4.15
2022-10-02T22:55:29.820Z,2.45
2022-10-02T22:58:02.462Z,3.25
2022-10-02T23:00:51.595Z,3.03
2022-10-02T23:03:31.310Z,3.13
2022-10-02T23:06:25.390Z,3.17
2022-10-02T23:08:59.220Z,3.00
2022-10-02T23:11:49.101Z,2.58
2022-10-02T23:14:24.835Z,2.97
2022-10-02T23:17:17.118Z,2.50
2022-10-02T23:19:49.511Z,2.72
2022-10-02T23:22:29.058Z,2.90
2022-10-02T23:25:15.500Z,2.72
2022-10-02T23:27:45.561Z,3.35
2022-10-02T23:30:19.243Z,2.70
2022-10-02T23:32:57.778Z,2.90
2022-10-02T23:35:48.132Z,2.70
2022-10-02T23:38:16.942Z,3.00
2022-10-02T23:41:26.791Z,2.70
2022-10-02T23:43:59.555Z,2.80
2022-10-02T23:46:33.430Z,3.20
2022-10-02T23:51:58.601Z,2.38
2022-10-02T23:54:43.880Z,2.30
2022-10-02T23:57:29.459Z,3.08
